createdAt,value
2023-05-10T00:00:19.175Z,25.00
2023-05-10T00:01:18.861Z,25.00
2023-05-10T00:02:18.968Z,25.00
2023-05-10T00:03:19.012Z,0.00
2023-05-10T00:04:19.115Z,0.00
2023-05-10T00:05:19.060Z,0.00
2023-05-10T00:06:19.152Z,0.00
2023-05-10T00:07:19.192Z,0.00
2023-05-10T00:08:19.265Z,0.00
2023-05-10T00:09:20.170Z,0.00
2023-05-10T00:10:19.382Z,5.62
2023-05-10T00:11:21.588Z,24.67
2023-05-10T00:12:19.467Z,18.78
2023-05-10T00:13:19.504Z,4.13
2023-05-10T00:14:19.440Z,0.00
2023-05-10T00:15:19.444Z,0.00
2023-05-10T00:16:19.456Z,0.00
2023-05-10T00:17:19.411Z,0.35
2023-05-10T00:18:19.416Z,22.20
2023-05-10T00:19:19.526Z,26.66
2023-05-10T00:20:19.582Z,27.28
2023-05-10T00:21:19.389Z,26.12
2023-05-10T00:22:19.390Z,25.61
2023-05-10T00:23:19.376Z,25.95
2023-05-10T00:24:19.374Z,25.00
2023-05-10T00:25:19.355Z,28.78
2023-05-10T00:26:19.356Z,25.47
2023-05-10T00:27:19.359Z,25.21
2023-05-10T00:28:19.345Z,25.00
2023-05-10T00:29:19.361Z,26.89
2023-05-10T00:30:19.444Z,26.41
2023-05-10T00:31:19.342Z,27.38
2023-05-10T00:32:19.372Z,26.52
2023-05-10T00:33:19.380Z,25.00
2023-05-10T00:34:19.310Z,25.71
2023-05-10T00:35:19.321Z,26.82
2023-05-10T00:36:19.294Z,27.29
2023-05-10T00:37:19.291Z,25.24
2023-05-10T00:38:19.282Z,28.56
2023-05-10T00:39:19.284Z,26.17
2023-05-10T00:40:19.459Z,26.99
2023-05-10T00:41:19.263Z,26.38
2023-05-10T00:42:19.251Z,27.90
2023-05-10T00:43:19.285Z,25.00
2023-05-10T00:44:19.249Z,26.31
2023-05-10T00:45:19.272Z,27.61
2023-05-10T00:46:19.292Z,25.00
2023-05-10T00:47:19.258Z,28.34
2023-05-10T00:48:19.237Z,30.81
2023-05-10T00:49:19.225Z,28.28
2023-05-10T00:50:19.234Z,26.41
2023-05-10T00:51:19.232Z,26.10
2023-05-10T00:52:19.232Z,29.14
2023-05-10T00:53:19.228Z,27.89
2023-05-10T00:54:19.227Z,27.53
2023-05-10T00:55:19.241Z,28.05
2023-05-10T00:56:19.295Z,28.15
2023-05-10T00:57:19.327Z,25.33
2023-05-10T00:58:19.390Z,25.00
2023-05-10T00:59:19.375Z,27.56
2023-05-10T01:00:19.393Z,27.76
2023-05-10T01:01:19.580Z,28.10
2023-05-10T01:02:19.468Z,27.05
2023-05-10T01:03:19.588Z,28.17
2023-05-10T01:04:19.396Z,29.35
2023-05-10T01:05:19.445Z,25.00
2023-05-10T01:06:19.410Z,27.32
2023-05-10T01:07:19.406Z,25.98
2023-05-10T01:08:19.455Z,27.49
2023-05-10T01:09:19.447Z,28.21
2023-05-10T01:10:19.440Z,25.81
2023-05-10T01:11:19.423Z,25.86
2023-05-10T01:12:19.474Z,28.01
2023-05-10T01:13:19.527Z,29.73
2023-05-10T01:14:19.554Z,29.87
2023-05-10T01:15:19.580Z,27.62
2023-05-10T01:16:19.649Z,30.00
2023-05-10T01:17:19.662Z,29.32
2023-05-10T01:18:19.640Z,28.91
2023-05-10T01:19:19.646Z,31.95
2023-05-10T01:20:19.799Z,30.52
2023-05-10T01:21:19.655Z,30.75
2023-05-10T01:22:19.632Z,29.03
2023-05-10T01:23:19.664Z,29.71
2023-05-10T01:24:19.632Z,31.86
2023-05-10T01:25:19.626Z,30.82
2023-05-10T01:26:19.635Z,31.98
2023-05-10T01:27:19.636Z,29.42
2023-05-10T01:28:19.616Z,29.37
2023-05-10T01:29:19.616Z,30.04
2023-05-10T01:30:22.235Z,26.59
2023-05-10T01:31:19.663Z,34.97
2023-05-10T01:32:19.606Z,30.01
2023-05-10T01:33:19.630Z,32.43
2023-05-10T01:34:19.586Z,29.55
2023-05-10T01:35:19.583Z,29.79
2023-05-10T01:36:19.615Z,29.25
2023-05-10T01:37:19.570Z,28.98
2023-05-10T01:38:19.571Z,30.40
2023-05-10T01:39:19.590Z,28.68
2023-05-10T01:40:19.556Z,29.29
2023-05-10T01:41:19.544Z,27.59
2023-05-10T01:42:19.537Z,30.80
2023-05-10T01:43:19.530Z,30.77
2023-05-10T01:44:19.525Z,29.24
2023-05-10T01:45:19.526Z,30.15
2023-05-10T01:46:19.595Z,31.82
2023-05-10T01:47:19.529Z,28.52
2023-05-10T01:48:19.515Z,30.08
2023-05-10T01:49:19.524Z,28.70
2023-05-10T01:50:19.661Z,30.97
2023-05-10T01:51:19.478Z,30.03
2023-05-10T01:52:19.476Z,26.67
2023-05-10T01:53:19.477Z,28.12
2023-05-10T01:54:19.465Z,30.35
2023-05-10T01:55:19.479Z,28.61
2023-05-10T01:56:19.440Z,29.93
2023-05-10T01:57:19.451Z,30.69
2023-05-10T01:58:19.439Z,29.70
2023-05-10T01:59:19.442Z,27.84
2023-05-10T02:00:19.434Z,29.51
2023-05-10T02:01:19.472Z,29.66
2023-05-10T02:02:19.408Z,28.01
2023-05-10T02:03:19.438Z,28.12
2023-05-10T02:04:19.394Z,29.76
2023-05-10T02:05:19.419Z,29.33
2023-05-10T02:06:19.380Z,28.74
2023-05-10T02:07:19.386Z,29.03
2023-05-10T02:08:19.374Z,29.96
2023-05-10T02:09:19.364Z,29.35
2023-05-10T02:10:19.528Z,29.93
2023-05-10T02:11:19.363Z,30.29
2023-05-10T02:12:19.344Z,27.05
2023-05-10T02:13:19.374Z,30.15
2023-05-10T02:14:19.342Z,30.16
2023-05-10T02:15:19.325Z,30.33
2023-05-10T02:16:19.349Z,28.98
2023-05-10T02:17:19.310Z,28.30
2023-05-10T02:18:19.314Z,29.24
2023-05-10T02:19:19.297Z,30.02
2023-05-10T02:20:19.493Z,28.86
2023-05-10T02:21:19.308Z,29.60
2023-05-10T02:22:19.271Z,29.65
2023-05-10T02:23:19.271Z,30.33
2023-05-10T02:24:19.264Z,30.03
2023-05-10T02:25:19.251Z,28.64
2023-05-10T02:26:19.320Z,26.41
2023-05-10T02:27:19.338Z,29.09
2023-05-10T02:28:19.383Z,28.08
2023-05-10T02:29:19.381Z,28.61
2023-05-10T02:30:19.443Z,30.42
2023-05-10T02:31:19.477Z,28.59
2023-05-10T02:32:19.483Z,28.21
2023-05-10T02:33:19.475Z,26.05
2023-05-10T02:34:19.456Z,27.77
2023-05-10T02:35:19.451Z,29.64
2023-05-10T02:36:19.466Z,27.68
2023-05-10T02:37:19.487Z,29.29
2023-05-10T02:38:19.455Z,28.20
2023-05-10T02:39:19.464Z,30.22
2023-05-10T02:40:19.593Z,29.50
2023-05-10T02:41:19.461Z,28.85
2023-05-10T02:42:19.461Z,29.37
2023-05-10T02:43:19.511Z,29.71
2023-05-10T02:44:19.479Z,29.52
2023-05-10T02:45:19.488Z,28.26
2023-05-10T02:46:19.550Z,30.40
2023-05-10T02:47:19.526Z,28.76
2023-05-10T02:48:19.523Z,26.85
2023-05-10T02:49:19.528Z,27.81
2023-05-10T02:50:19.619Z,27.01
2023-05-10T02:51:19.546Z,27.84
2023-05-10T02:52:19.587Z,27.37
2023-05-10T02:53:19.616Z,28.02
2023-05-10T02:54:19.624Z,28.79
2023-05-10T02:55:19.592Z,28.20
2023-05-10T02:56:19.589Z,27.77
2023-05-10T02:57:19.598Z,29.90
2023-05-10T02:58:19.626Z,28.05
2023-05-10T02:59:19.631Z,28.58
2023-05-10T03:00:19.629Z,28.91
2023-05-10T03:01:19.668Z,27.10
2023-05-10T03:02:19.697Z,28.47
2023-05-10T03:03:19.651Z,28.88
2023-05-10T03:04:19.676Z,27.93
2023-05-10T03:05:19.677Z,26.68
2023-05-10T03:06:19.674Z,27.11
2023-05-10T03:07:19.681Z,28.67
2023-05-10T03:08:19.689Z,26.76
2023-05-10T03:09:19.736Z,28.26
2023-05-10T03:10:19.803Z,29.51
2023-05-10T03:11:19.715Z,27.09
2023-05-10T03:12:19.713Z,27.36
2023-05-10T03:13:19.835Z,28.87
2023-05-10T03:14:19.720Z,29.21
2023-05-10T03:15:19.728Z,28.06
2023-05-10T03:16:19.751Z,27.03
2023-05-10T03:17:19.776Z,28.15
2023-05-10T03:18:19.773Z,29.73
2023-05-10T03:19:19.782Z,28.84
2023-05-10T03:20:19.773Z,27.74
2023-05-10T03:21:19.773Z,26.98
2023-05-10T03:22:19.776Z,29.70
2023-05-10T03:23:19.805Z,30.17
2023-05-10T03:24:19.852Z,29.66
2023-05-10T03:25:19.899Z,30.22
2023-05-10T03:26:19.882Z,30.07
2023-05-10T03:27:19.870Z,29.36
2023-05-10T03:28:19.872Z,28.20
2023-05-10T03:29:19.873Z,26.71
2023-05-10T03:30:19.889Z,29.86
2023-05-10T03:31:19.919Z,27.91
2023-05-10T03:32:19.889Z,29.36
2023-05-10T03:33:19.897Z,25.73
2023-05-10T03:34:19.906Z,29.26
2023-05-10T03:35:19.932Z,28.55
2023-05-10T03:36:19.921Z,25.77
2023-05-10T03:37:19.924Z,28.91
2023-05-10T03:38:19.916Z,28.82
2023-05-10T03:39:19.917Z,29.18
2023-05-10T03:40:20.048Z,27.42
2023-05-10T03:41:19.957Z,30.66
2023-05-10T03:42:19.909Z,31.89
2023-05-10T03:43:19.926Z,30.46
2023-05-10T03:44:19.925Z,27.70
2023-05-10T03:45:19.922Z,29.99
2023-05-10T03:46:19.950Z,29.08
2023-05-10T03:47:19.919Z,26.61
2023-05-10T03:48:19.935Z,27.55
2023-05-10T03:49:19.930Z,28.98
2023-05-10T03:50:20.184Z,27.86
2023-05-10T03:51:19.936Z,29.91
2023-05-10T03:52:19.943Z,30.73
2023-05-10T03:53:19.939Z,30.01
2023-05-10T03:54:19.940Z,29.26
2023-05-10T03:55:19.946Z,29.13
2023-05-10T03:56:19.955Z,28.27
2023-05-10T03:57:19.987Z,28.62
2023-05-10T03:58:19.945Z,28.40
2023-05-10T03:59:19.944Z,28.76
2023-05-10T04:00:20.072Z,27.75
2023-05-10T04:01:19.971Z,29.71
2023-05-10T04:02:20.031Z,33.52
2023-05-10T04:03:20.002Z,29.74
2023-05-10T04:04:20.127Z,26.87
2023-05-10T04:05:19.967Z,29.63
2023-05-10T04:06:20.020Z,28.39
2023-05-10T04:07:19.978Z,27.98
2023-05-10T04:08:19.967Z,31.00
2023-05-10T04:09:19.974Z,28.25
2023-05-10T04:10:20.056Z,29.79
2023-05-10T04:11:19.954Z,28.51
2023-05-10T04:12:19.971Z,32.45
2023-05-10T04:13:20.011Z,32.28
2023-05-10T04:14:19.961Z,27.91
2023-05-10T04:15:19.938Z,30.72
2023-05-10T04:16:19.985Z,29.97
2023-05-10T04:17:19.990Z,28.38
2023-05-10T04:18:19.950Z,28.81
2023-05-10T04:19:19.949Z,27.83
2023-05-10T04:20:19.951Z,30.49
2023-05-10T04:21:19.950Z,29.92
2023-05-10T04:22:19.950Z,31.34
2023-05-10T04:23:19.943Z,29.59
2023-05-10T04:24:19.938Z,30.65
2023-05-10T04:25:19.949Z,27.77
2023-05-10T04:26:19.950Z,28.58
2023-05-10T04:27:19.955Z,29.39
2023-05-10T04:28:19.938Z,28.49
2023-05-10T04:29:20.085Z,29.24
2023-05-10T04:30:19.950Z,28.86
2023-05-10T04:31:20.110Z,27.15
2023-05-10T04:32:19.956Z,29.17
2023-05-10T04:33:19.966Z,28.33
2023-05-10T04:34:19.954Z,26.87
2023-05-10T04:35:19.972Z,28.87
2023-05-10T04:36:19.948Z,25.00
2023-05-10T04:37:19.962Z,27.48
2023-05-10T04:38:19.982Z,30.34
2023-05-10T04:39:20.014Z,28.89
2023-05-10T04:40:19.956Z,30.16
2023-05-10T04:41:19.954Z,29.20
2023-05-10T04:42:19.981Z,28.41
2023-05-10T04:43:19.976Z,31.02
2023-05-10T04:44:20.003Z,28.47
2023-05-10T04:45:20.010Z,30.15
2023-05-10T04:46:19.976Z,26.82
2023-05-10T04:47:20.790Z,29.56
2023-05-10T04:48:19.964Z,30.26
2023-05-10T04:49:19.971Z,27.53
2023-05-10T04:50:19.980Z,30.67
2023-05-10T04:51:19.969Z,27.97
2023-05-10T04:52:20.006Z,30.42
2023-05-10T04:53:19.962Z,33.19
2023-05-10T04:54:19.963Z,30.46
2023-05-10T04:55:19.968Z,30.27
2023-05-10T04:56:19.963Z,27.33
2023-05-10T04:57:19.969Z,28.83
2023-05-10T04:58:19.963Z,28.85
2023-05-10T04:59:19.948Z,30.25
2023-05-10T05:00:19.954Z,28.26
2023-05-10T05:01:20.012Z,29.84
2023-05-10T05:02:19.972Z,29.20
2023-05-10T05:03:20.058Z,28.22
2023-05-10T05:04:19.975Z,30.57
2023-05-10T05:05:19.968Z,28.12
2023-05-10T05:06:20.033Z,29.95
2023-05-10T05:07:19.960Z,29.24
2023-05-10T05:08:19.962Z,27.42
2023-05-10T05:09:19.959Z,28.31
2023-05-10T05:10:20.214Z,31.46
2023-05-10T05:11:19.957Z,29.01
2023-05-10T05:12:19.962Z,28.53
2023-05-10T05:13:20.073Z,27.35
2023-05-10T05:14:19.985Z,30.57
2023-05-10T05:15:19.954Z,28.42
2023-05-10T05:16:19.977Z,31.26
2023-05-10T05:17:19.997Z,25.57
2023-05-10T05:18:19.939Z,28.26
2023-05-10T05:19:20.309Z,29.34
2023-05-10T05:20:20.029Z,28.80
2023-05-10T05:21:20.337Z,26.76
2023-05-10T05:22:19.960Z,27.79
2023-05-10T05:23:19.943Z,28.56
2023-05-10T05:24:19.965Z,27.64
2023-05-10T05:25:19.940Z,29.12
2023-05-10T05:26:20.298Z,28.63
2023-05-10T05:27:19.944Z,29.70
2023-05-10T05:28:19.944Z,32.29
2023-05-10T05:29:19.973Z,31.99
2023-05-10T05:30:19.958Z,31.74
2023-05-10T05:31:20.072Z,30.72
2023-05-10T05:32:19.947Z,32.46
2023-05-10T05:33:19.989Z,30.48
2023-05-10T05:34:19.967Z,32.09
2023-05-10T05:35:20.305Z,34.10
2023-05-10T05:36:19.968Z,33.87
2023-05-10T05:37:19.976Z,33.82
2023-05-10T05:38:19.967Z,36.50
2023-05-10T05:39:19.968Z,34.91
2023-05-10T05:40:20.310Z,37.12
2023-05-10T05:41:19.971Z,35.80
2023-05-10T05:42:20.020Z,38.26
2023-05-10T05:43:20.011Z,39.59
2023-05-10T05:44:20.006Z,35.15
2023-05-10T05:45:20.538Z,38.15
2023-05-10T05:46:20.090Z,41.93
2023-05-10T05:47:20.081Z,43.27
2023-05-10T05:48:20.040Z,45.41
2023-05-10T05:49:20.434Z,47.33
2023-05-10T05:50:20.362Z,48.73
2023-05-10T05:51:21.009Z,56.47
2023-05-10T05:52:20.006Z,57.03
2023-05-10T05:53:20.156Z,60.12
2023-05-10T05:54:20.351Z,65.18
2023-05-10T05:55:20.003Z,73.94
2023-05-10T05:56:20.006Z,77.47
2023-05-10T05:57:20.002Z,84.63
2023-05-10T05:58:20.318Z,90.25
2023-05-10T05:59:20.087Z,95.71
2023-05-10T06:00:21.314Z,100.08
2023-05-10T06:01:20.183Z,102.71
2023-05-10T06:02:20.259Z,103.69
2023-05-10T06:03:20.473Z,108.23
2023-05-10T06:04:20.895Z,113.76
2023-05-10T06:05:20.843Z,117.36
2023-05-10T06:06:20.473Z,121.73
2023-05-10T06:07:20.820Z,130.23
2023-05-10T06:08:20.679Z,132.74
2023-05-10T06:09:23.847Z,136.61
2023-05-10T06:10:20.641Z,137.03
2023-05-10T06:11:20.644Z,138.97
2023-05-10T06:12:20.926Z,142.67
2023-05-10T06:13:20.664Z,148.98
2023-05-10T06:14:20.869Z,162.30
2023-05-10T06:15:20.824Z,166.45
2023-05-10T06:16:20.627Z,169.40
2023-05-10T06:17:20.589Z,172.72
2023-05-10T06:18:20.597Z,178.17
2023-05-10T06:19:20.590Z,180.76
2023-05-10T06:20:20.828Z,185.55
2023-05-10T06:21:20.603Z,189.75
2023-05-10T06:22:20.560Z,192.60
2023-05-10T06:23:20.544Z,198.54
2023-05-10T06:24:20.573Z,202.91
2023-05-10T06:25:20.537Z,204.76
2023-05-10T06:26:20.553Z,208.32
2023-05-10T06:27:20.539Z,212.43
2023-05-10T06:28:20.533Z,213.83
2023-05-10T06:29:20.853Z,216.77
2023-05-10T06:30:20.534Z,218.66
2023-05-10T06:31:20.522Z,223.35
2023-05-10T06:32:23.829Z,227.64
2023-05-10T06:33:20.500Z,227.99
2023-05-10T06:34:20.880Z,229.28
2023-05-10T06:35:20.484Z,230.98
2023-05-10T06:36:20.478Z,234.97
2023-05-10T06:37:20.500Z,240.67
2023-05-10T06:38:20.468Z,246.40
2023-05-10T06:39:20.837Z,247.28
2023-05-10T06:40:20.449Z,248.06
2023-05-10T06:41:22.567Z,249.09
2023-05-10T06:42:20.455Z,249.57
2023-05-10T06:43:20.430Z,250.73
2023-05-10T06:44:20.436Z,253.56
2023-05-10T06:45:21.172Z,257.18
2023-05-10T06:46:20.442Z,267.76
2023-05-10T06:47:20.408Z,248.98
2023-05-10T06:48:20.476Z,245.18
2023-05-10T06:49:20.832Z,241.68
2023-05-10T06:50:20.853Z,241.35
2023-05-10T06:51:20.379Z,239.02
2023-05-10T06:52:20.377Z,238.19
2023-05-10T06:53:20.388Z,238.67
2023-05-10T06:54:20.722Z,240.23
2023-05-10T06:55:24.091Z,238.72
2023-05-10T06:56:20.347Z,238.95
2023-05-10T06:57:31.424Z,239.17
2023-05-10T06:58:20.332Z,239.19
2023-05-10T06:59:20.386Z,240.22
2023-05-10T07:00:20.824Z,240.05
2023-05-10T07:01:20.556Z,241.00
2023-05-10T07:02:20.328Z,240.10
2023-05-10T07:03:20.370Z,238.31
2023-05-10T07:04:20.390Z,235.75
2023-05-10T07:05:20.790Z,233.84
2023-05-10T07:06:32.159Z,233.75
2023-05-10T07:07:20.294Z,234.13
2023-05-10T07:08:20.275Z,234.68
2023-05-10T07:09:20.304Z,234.94
2023-05-10T07:10:20.370Z,233.20
2023-05-10T07:11:20.260Z,231.97
2023-05-10T07:12:20.310Z,229.95
2023-05-10T07:13:20.366Z,229.14
2023-05-10T07:14:20.234Z,230.75
2023-05-10T07:15:20.245Z,227.57
2023-05-10T07:16:20.411Z,231.16
2023-05-10T07:17:20.258Z,229.33
2023-05-10T07:18:20.303Z,225.80
2023-05-10T07:19:20.269Z,227.38
2023-05-10T07:20:20.196Z,227.80
2023-05-10T07:21:20.295Z,228.02
2023-05-10T07:22:20.194Z,228.29
2023-05-10T07:23:20.189Z,228.05
2023-05-10T07:24:21.174Z,229.75
2023-05-10T07:25:20.323Z,229.36
2023-05-10T07:26:20.166Z,227.37
2023-05-10T07:27:20.160Z,227.35
2023-05-10T07:28:20.146Z,228.12
2023-05-10T07:29:20.367Z,227.12
2023-05-10T07:30:20.198Z,227.06
2023-05-10T07:31:20.140Z,227.91
2023-05-10T07:32:20.436Z,228.48
2023-05-10T07:33:20.234Z,228.52
2023-05-10T07:34:20.196Z,226.11
2023-05-10T07:35:20.366Z,226.64
2023-05-10T07:36:21.302Z,225.11
2023-05-10T07:37:20.328Z,225.33
2023-05-10T07:38:20.354Z,227.13
2023-05-10T07:39:26.570Z,228.07
2023-05-10T07:40:20.900Z,228.45
2023-05-10T07:41:20.399Z,228.48
2023-05-10T07:42:20.354Z,229.30
2023-05-10T07:43:20.372Z,231.35
2023-05-10T07:44:20.425Z,234.42
2023-05-10T07:45:20.361Z,239.31
2023-05-10T07:46:20.459Z,240.07
2023-05-10T07:47:20.406Z,241.62
2023-05-10T07:48:20.374Z,242.82
2023-05-10T07:49:20.351Z,245.95
2023-05-10T07:50:20.384Z,246.22
2023-05-10T07:51:20.295Z,248.69
2023-05-10T07:52:22.401Z,248.63
2023-05-10T07:53:20.316Z,244.02
2023-05-10T07:54:21.408Z,243.58
2023-05-10T07:55:20.386Z,241.13
2023-05-10T07:56:20.314Z,237.22
2023-05-10T07:57:20.309Z,236.61
2023-05-10T07:58:20.549Z,242.86
2023-05-10T07:59:20.241Z,242.06
2023-05-10T08:00:20.402Z,240.61
2023-05-10T08:01:20.360Z,238.58
2023-05-10T08:02:20.270Z,239.66
2023-05-10T08:03:20.401Z,238.88
2023-05-10T08:04:20.384Z,236.40
2023-05-10T08:05:20.364Z,234.84
2023-05-10T08:06:20.407Z,235.10
2023-05-10T08:07:20.869Z,234.66
2023-05-10T08:08:20.527Z,232.76
2023-05-10T08:09:20.576Z,232.85
2023-05-10T08:10:20.641Z,232.14
2023-05-10T08:11:20.700Z,231.25
2023-05-10T08:12:20.743Z,230.19
2023-05-10T08:13:20.840Z,229.56
2023-05-10T08:14:20.898Z,231.77
2023-05-10T08:15:20.914Z,231.20
2023-05-10T08:16:21.064Z,229.71
2023-05-10T08:17:22.116Z,229.79
2023-05-10T08:18:22.182Z,233.75
2023-05-10T08:19:21.023Z,233.89
2023-05-10T08:20:21.392Z,232.35
2023-05-10T08:21:21.012Z,229.83
2023-05-10T08:22:21.011Z,232.91
2023-05-10T08:23:21.030Z,231.19
2023-05-10T08:24:21.093Z,228.47
2023-05-10T08:25:21.384Z,230.42
2023-05-10T08:26:21.210Z,228.95
2023-05-10T08:27:21.302Z,228.97
2023-05-10T08:28:21.324Z,229.96
2023-05-10T08:29:21.417Z,228.44
2023-05-10T08:30:21.884Z,224.85
2023-05-10T08:31:21.518Z,225.54
2023-05-10T08:32:21.520Z,225.96
2023-05-10T08:33:21.570Z,224.12
2023-05-10T08:34:21.908Z,222.39
2023-05-10T08:35:21.886Z,224.79
2023-05-10T08:36:21.703Z,222.62
2023-05-10T08:37:21.730Z,223.33
2023-05-10T08:38:24.959Z,223.30
2023-05-10T08:39:29.883Z,223.49
2023-05-10T08:41:22.799Z,224.14
2023-05-10T08:42:21.744Z,223.94
2023-05-10T08:43:25.000Z,224.73
2023-05-10T08:44:21.774Z,223.68
2023-05-10T08:45:21.905Z,224.32
2023-05-10T08:46:21.842Z,224.77
2023-05-10T08:47:21.746Z,222.89
2023-05-10T08:48:21.721Z,222.34
2023-05-10T08:49:21.686Z,220.28
2023-05-10T08:50:21.887Z,219.70
2023-05-10T08:51:21.687Z,217.80
2023-05-10T08:52:21.683Z,220.23
2023-05-10T08:53:21.670Z,218.76
2023-05-10T08:54:21.667Z,216.70
2023-05-10T08:55:21.959Z,217.08
2023-05-10T08:56:21.650Z,216.25
2023-05-10T08:57:21.718Z,215.17
2023-05-10T08:58:25.106Z,218.01
2023-05-10T08:59:21.638Z,218.26
2023-05-10T09:00:21.631Z,218.01
2023-05-10T09:01:21.680Z,215.83
2023-05-10T09:02:21.614Z,215.68
2023-05-10T09:03:21.597Z,213.73
2023-05-10T09:04:21.721Z,213.82
2023-05-10T09:05:21.628Z,212.00
2023-05-10T09:06:21.584Z,210.63
2023-05-10T09:07:21.576Z,212.10
2023-05-10T09:08:21.570Z,210.60
2023-05-10T09:09:21.889Z,211.07
2023-05-10T09:10:21.557Z,211.24
2023-05-10T09:11:22.197Z,208.77
2023-05-10T09:12:21.561Z,209.31
2023-05-10T09:13:21.529Z,209.49
2023-05-10T09:14:21.540Z,210.11
2023-05-10T09:15:21.904Z,208.60
2023-05-10T09:16:22.436Z,209.12
2023-05-10T09:17:21.620Z,208.03
2023-05-10T09:18:21.528Z,210.08
2023-05-10T09:19:21.497Z,205.73
2023-05-10T09:20:21.512Z,207.48
2023-05-10T09:21:21.577Z,205.82
2023-05-10T09:22:21.477Z,208.84
2023-05-10T09:23:21.476Z,207.17
2023-05-10T09:24:21.466Z,205.22
2023-05-10T09:25:21.900Z,205.45
2023-05-10T09:26:21.446Z,206.76
2023-05-10T09:27:21.443Z,203.90
2023-05-10T09:28:21.474Z,201.76
2023-05-10T09:29:21.903Z,207.99
2023-05-10T09:30:21.506Z,214.78
2023-05-10T09:31:21.713Z,218.45
2023-05-10T09:32:21.593Z,225.93
2023-05-10T09:33:53.485Z,250.00
2023-05-10T09:34:21.949Z,250.58
2023-05-10T09:35:21.604Z,253.53
2023-05-10T09:36:21.903Z,255.55
2023-05-10T09:37:21.591Z,261.89
2023-05-10T09:38:21.923Z,267.42
2023-05-10T09:39:21.572Z,248.98
2023-05-10T09:40:21.579Z,246.13
2023-05-10T09:41:21.563Z,224.18
2023-05-10T09:42:21.574Z,198.46
2023-05-10T09:43:21.910Z,188.93
2023-05-10T09:44:21.544Z,191.03
2023-05-10T09:45:21.912Z,197.93
2023-05-10T09:46:21.582Z,206.02
2023-05-10T09:47:21.520Z,221.91
2023-05-10T09:48:21.515Z,230.77
2023-05-10T09:49:21.553Z,233.67
2023-05-10T09:50:21.512Z,233.69
2023-05-10T09:51:21.526Z,237.19
2023-05-10T09:52:21.518Z,241.85
2023-05-10T09:53:21.542Z,246.37
2023-05-10T09:54:21.997Z,250.00
2023-05-10T09:55:21.567Z,250.00
2023-05-10T09:56:29.116Z,250.00
2023-05-10T09:57:21.615Z,250.43
2023-05-10T09:58:21.647Z,252.57
2023-05-10T09:59:21.594Z,256.28
2023-05-10T10:00:21.618Z,263.40
2023-05-10T10:01:21.953Z,277.71
2023-05-10T10:02:21.579Z,261.17
2023-05-10T10:03:21.569Z,249.86
2023-05-10T10:04:21.578Z,249.97
2023-05-10T10:05:21.577Z,249.24
2023-05-10T10:06:29.519Z,249.57
2023-05-10T10:07:21.555Z,249.99
2023-05-10T10:08:21.533Z,251.41
2023-05-10T10:09:21.554Z,253.87
2023-05-10T10:10:21.926Z,260.24
2023-05-10T10:11:21.515Z,268.44
2023-05-10T10:12:21.510Z,253.79
2023-05-10T10:13:21.521Z,249.50
2023-05-10T10:14:21.490Z,249.77
2023-05-10T10:15:21.799Z,250.00
2023-05-10T10:16:21.512Z,249.84
2023-05-10T10:17:21.494Z,249.70
2023-05-10T10:18:21.477Z,249.27
2023-05-10T10:19:21.927Z,249.58
2023-05-10T10:20:21.588Z,250.00
2023-05-10T10:21:21.953Z,249.17
2023-05-10T10:22:21.455Z,249.65
2023-05-10T10:23:21.443Z,249.40
2023-05-10T10:24:21.429Z,250.00
2023-05-10T10:25:21.436Z,249.48
2023-05-10T10:26:21.445Z,248.93
2023-05-10T10:27:21.399Z,250.00
2023-05-10T10:28:21.394Z,248.58
2023-05-10T10:29:21.397Z,242.02
2023-05-10T10:30:21.388Z,243.15
2023-05-10T10:31:21.493Z,244.34
2023-05-10T10:32:21.391Z,245.31
2023-05-10T10:34:21.356Z,246.52
2023-05-10T10:35:21.350Z,246.77
2023-05-10T10:36:21.360Z,246.42
2023-05-10T10:37:21.379Z,246.20
2023-05-10T10:38:21.318Z,246.67
2023-05-10T10:39:21.433Z,247.98
2023-05-10T10:40:21.309Z,250.00
2023-05-10T10:41:21.434Z,249.26
2023-05-10T10:42:21.303Z,249.25
2023-05-10T10:43:21.286Z,249.55
2023-05-10T10:44:21.283Z,249.69
2023-05-10T10:45:21.272Z,248.62
2023-05-10T10:46:21.290Z,249.83
2023-05-10T10:47:21.275Z,250.00
2023-05-10T10:48:21.247Z,247.66
2023-05-10T10:49:21.248Z,248.72
2023-05-10T10:50:21.231Z,248.41
2023-05-10T10:51:21.433Z,247.10
2023-05-10T10:52:21.216Z,247.92
2023-05-10T10:53:21.276Z,248.65
2023-05-10T10:54:21.201Z,248.60
2023-05-10T10:55:21.210Z,248.94
2023-05-10T10:56:21.192Z,249.65
2023-05-10T10:57:21.188Z,249.90
2023-05-10T10:58:21.179Z,249.93
2023-05-10T10:59:21.177Z,250.00
2023-05-10T11:00:21.182Z,248.52
2023-05-10T11:01:21.496Z,249.44
2023-05-10T11:02:21.294Z,248.79
2023-05-10T11:03:21.350Z,249.63
2023-05-10T11:04:21.469Z,249.45
2023-05-10T11:05:21.459Z,249.50
2023-05-10T11:06:21.541Z,250.00
2023-05-10T11:07:21.582Z,249.93
2023-05-10T11:08:21.631Z,247.43
2023-05-10T11:09:21.721Z,247.48
2023-05-10T11:10:21.761Z,245.70
2023-05-10T11:11:21.820Z,245.22
2023-05-10T11:12:21.897Z,245.00
2023-05-10T11:13:21.939Z,243.32
2023-05-10T11:14:21.967Z,243.28
2023-05-10T11:15:22.042Z,241.14
2023-05-10T11:16:22.078Z,240.96
2023-05-10T11:17:22.021Z,239.80
2023-05-10T11:18:22.101Z,240.69
2023-05-10T11:19:22.021Z,239.37
2023-05-10T11:20:22.014Z,238.30
2023-05-10T11:21:22.018Z,238.69
2023-05-10T11:22:22.318Z,238.51
2023-05-10T11:23:22.105Z,237.23
2023-05-10T11:24:22.057Z,236.56
2023-05-10T11:25:23.030Z,235.87
2023-05-10T11:26:22.085Z,235.52
2023-05-10T11:27:22.079Z,235.73
2023-05-10T11:28:22.090Z,234.10
2023-05-10T11:29:22.142Z,234.53
2023-05-10T11:30:22.107Z,233.68
2023-05-10T11:31:22.270Z,234.05
2023-05-10T11:32:22.134Z,233.15
2023-05-10T11:33:22.160Z,232.62
2023-05-10T11:34:22.163Z,231.53
2023-05-10T11:35:22.182Z,231.82
2023-05-10T11:36:22.181Z,231.77
2023-05-10T11:37:22.199Z,231.01
2023-05-10T11:38:22.211Z,230.89
2023-05-10T11:39:22.231Z,230.43
2023-05-10T11:40:22.238Z,230.10
2023-05-10T11:41:22.274Z,232.47
2023-05-10T11:42:22.265Z,232.59
2023-05-10T11:43:22.292Z,238.43
2023-05-10T11:44:22.291Z,237.08
2023-05-10T11:45:22.332Z,236.80
2023-05-10T11:46:22.423Z,238.68
2023-05-10T11:47:22.311Z,237.01
2023-05-10T11:48:22.311Z,236.83
2023-05-10T11:49:22.324Z,235.39
2023-05-10T11:50:22.338Z,236.37
2023-05-10T11:51:22.344Z,235.68
2023-05-10T11:52:22.365Z,235.48
2023-05-10T11:53:23.746Z,234.10
2023-05-10T11:54:22.382Z,235.38
2023-05-10T11:55:22.379Z,237.02
2023-05-10T11:56:22.374Z,234.82
2023-05-10T11:57:22.384Z,232.41
2023-05-10T11:58:22.353Z,232.28
2023-05-10T11:59:22.337Z,232.31
2023-05-10T12:00:22.395Z,231.84
2023-05-10T12:01:22.475Z,231.44
2023-05-10T12:02:22.342Z,231.99
2023-05-10T12:03:22.431Z,231.14
2023-05-10T12:04:22.416Z,229.47
2023-05-10T12:05:22.305Z,227.81
2023-05-10T12:06:22.320Z,227.97
2023-05-10T12:07:22.288Z,227.73
2023-05-10T12:08:22.289Z,228.03
2023-05-10T12:09:35.371Z,227.08
2023-05-10T12:10:22.291Z,227.33
2023-05-10T12:11:22.256Z,227.86
2023-05-10T12:12:22.254Z,227.40
2023-05-10T12:13:22.266Z,227.45
2023-05-10T12:14:23.244Z,226.09
2023-05-10T12:15:22.275Z,226.45
2023-05-10T12:16:22.520Z,225.14
2023-05-10T12:17:22.220Z,223.72
2023-05-10T12:18:22.256Z,223.91
2023-05-10T12:19:22.214Z,223.25
2023-05-10T12:20:22.204Z,223.42
2023-05-10T12:21:22.227Z,222.73
2023-05-10T12:22:22.492Z,221.71
2023-05-10T12:23:22.191Z,221.03
2023-05-10T12:24:22.176Z,219.79
2023-05-10T12:25:22.164Z,220.30
2023-05-10T12:26:22.167Z,219.64
2023-05-10T12:27:22.164Z,219.45
2023-05-10T12:28:22.154Z,218.93
2023-05-10T12:29:22.177Z,219.25
2023-05-10T12:30:22.184Z,218.44
2023-05-10T12:31:22.234Z,217.36
2023-05-10T12:32:22.239Z,217.89
2023-05-10T12:33:22.271Z,216.15
2023-05-10T12:34:22.316Z,217.76
2023-05-10T12:35:22.354Z,216.83
2023-05-10T12:36:22.404Z,215.10
2023-05-10T12:37:22.437Z,216.61
2023-05-10T12:38:22.465Z,216.47
2023-05-10T12:39:22.508Z,215.08
2023-05-10T12:40:22.523Z,214.11
2023-05-10T12:41:22.581Z,214.27
2023-05-10T12:42:22.578Z,213.01